KSCK/SCK METAR and TAF weather

Enter ICAO airport designator
Station Type Date Time Source
KSCK METAR 2019/10/23 01:55 UTC NOAA

KSCK 230155Z 29005KT 10SM CLR 23/07 A3003 RMK AO2 SLP169 T02330067


Station Type Date Time Source
KSCK Decoded METAR 2019/10/23 01:55 UTC NOAA

STOCKTON METROPOLITAN AIRPORT , CA, United States (KSCK) 37-54N 121-14W 10M
Oct 22, 2019 - 09:55 PM EDT / 2019.10.23 0155 UTC
Wind: from the WNW (290 degrees) at 6 MPH (5 KT):0
Visibility: 10 mile(s):0
Sky conditions: clear
Temperature: 73.9 F (23.3 C)
Dew Point: 44.1 F (6.7 C)
Relative Humidity: 34%
Pressure (altimeter): 30.03 in. Hg (1016 hPa)
ob: KSCK 230155Z 29005KT 10SM CLR 23/07 A3003 RMK AO2 SLP169 T02330067
cycle: 2

Station Type Date Time Source
KSCK TAF 2019/10/22 18:36 UTC NOAA

TAF KSCK 221733Z 2218/2318 31006KT P6SM SKC

Example: see airport list